createdAt,value
2018-09-25T00:00:17.405Z,0.00
2018-09-25T00:01:17.420Z,4.00
2018-09-25T00:02:17.429Z,0.00
2018-09-25T00:03:17.444Z,0.00
2018-09-25T00:04:17.453Z,0.00
2018-09-25T00:05:17.474Z,0.00
2018-09-25T00:06:17.482Z,0.00
2018-09-25T00:07:17.511Z,0.00
2018-09-25T00:08:17.500Z,0.00
2018-09-25T00:09:17.513Z,0.00
2018-09-25T00:10:17.574Z,0.00
2018-09-25T00:11:17.538Z,0.00
2018-09-25T00:12:17.546Z,0.00
2018-09-25T00:13:17.560Z,0.00
2018-09-25T00:14:17.568Z,0.00
2018-09-25T00:15:17.580Z,0.00
2018-09-25T00:16:17.599Z,4.00
2018-09-25T00:17:17.615Z,0.00
2018-09-25T00:18:17.616Z,0.00
2018-09-25T00:19:17.626Z,0.00
2018-09-25T00:20:17.845Z,0.00
2018-09-25T00:21:17.650Z,0.00
2018-09-25T00:22:17.709Z,0.00
2018-09-25T00:23:17.671Z,0.00
2018-09-25T00:24:17.685Z,0.00
2018-09-25T00:25:17.698Z,0.00
2018-09-25T00:26:17.710Z,0.00
2018-09-25T00:27:17.743Z,0.00
2018-09-25T00:28:17.729Z,0.00
2018-09-25T00:29:17.748Z,0.00
2018-09-25T00:30:17.756Z,0.00
2018-09-25T00:31:17.767Z,0.00
2018-09-25T00:32:17.777Z,0.00
2018-09-25T00:33:17.788Z,0.00
2018-09-25T00:34:17.816Z,0.00
2018-09-25T00:35:17.810Z,0.00
2018-09-25T00:36:17.820Z,0.00
2018-09-25T00:37:17.831Z,0.00
2018-09-25T00:38:17.842Z,0.00
2018-09-25T00:39:17.857Z,0.00
2018-09-25T00:40:17.867Z,0.00
2018-09-25T00:41:17.879Z,0.00
2018-09-25T00:42:17.887Z,0.00
2018-09-25T00:43:17.902Z,0.00
2018-09-25T00:44:17.912Z,0.00
2018-09-25T00:45:17.923Z,0.00
2018-09-25T00:46:17.933Z,0.00
2018-09-25T00:47:17.945Z,0.00
2018-09-25T00:48:17.958Z,0.00
2018-09-25T00:49:17.969Z,0.00
2018-09-25T00:50:17.980Z,0.00
2018-09-25T00:51:18.003Z,0.00
2018-09-25T00:52:18.002Z,0.00
2018-09-25T00:54:18.044Z,0.00
2018-09-25T00:55:18.036Z,0.00
2018-09-25T00:56:18.048Z,0.00
2018-09-25T00:57:18.084Z,0.00
2018-09-25T00:58:18.079Z,0.00
2018-09-25T00:59:18.081Z,0.00
2018-09-25T01:00:18.094Z,4.00
2018-09-25T01:01:18.104Z,0.00
2018-09-25T01:02:18.128Z,0.00
2018-09-25T01:03:18.126Z,0.00
2018-09-25T01:04:18.139Z,0.00
2018-09-25T01:05:18.150Z,0.00
2018-09-25T01:06:18.160Z,0.00
2018-09-25T01:07:18.173Z,4.00
2018-09-25T01:08:18.185Z,0.00
2018-09-25T01:09:18.196Z,0.00
2018-09-25T01:10:18.205Z,0.00
2018-09-25T01:11:18.239Z,0.00
2018-09-25T01:12:18.229Z,0.00
2018-09-25T01:13:18.241Z,0.00
2018-09-25T01:14:18.251Z,0.00
2018-09-25T01:15:18.263Z,0.00
2018-09-25T01:16:18.275Z,0.00
2018-09-25T01:17:18.313Z,0.00
2018-09-25T01:18:18.300Z,0.00
2018-09-25T01:19:18.445Z,0.00
2018-09-25T01:20:18.320Z,0.00
2018-09-25T01:21:18.338Z,0.00
2018-09-25T01:22:18.354Z,0.00
2018-09-25T01:23:18.354Z,0.00
2018-09-25T01:24:18.364Z,0.00
2018-09-25T01:27:18.918Z,0.00
2018-09-25T01:28:18.413Z,0.00
2018-09-25T01:29:18.422Z,0.00
2018-09-25T01:30:18.437Z,0.00
2018-09-25T01:31:18.444Z,0.00
2018-09-25T01:32:18.458Z,0.00
2018-09-25T01:33:18.474Z,0.00
2018-09-25T01:34:18.480Z,0.00
2018-09-25T01:35:18.495Z,0.00
2018-09-25T01:36:18.502Z,0.00
2018-09-25T01:37:18.515Z,0.00
2018-09-25T01:38:18.525Z,0.00
2018-09-25T01:39:18.535Z,0.00
2018-09-25T01:40:18.554Z,0.00
2018-09-25T01:41:18.558Z,0.00
2018-09-25T01:42:18.569Z,0.00
2018-09-25T01:43:18.583Z,0.00
2018-09-25T01:44:18.619Z,0.00
2018-09-25T01:45:18.613Z,0.00
2018-09-25T01:46:18.616Z,0.00
2018-09-25T01:47:18.631Z,0.00
2018-09-25T01:48:18.643Z,0.00
2018-09-25T01:49:18.651Z,0.00
2018-09-25T01:50:18.663Z,0.00
2018-09-25T01:51:18.733Z,0.00
2018-09-25T01:52:18.691Z,0.00
2018-09-25T01:53:18.701Z,0.00
2018-09-25T01:54:18.728Z,0.00
2018-09-25T01:55:18.733Z,0.00
2018-09-25T01:56:18.730Z,0.00
2018-09-25T01:57:18.794Z,0.00
2018-09-25T01:58:19.057Z,0.00
2018-09-25T01:59:19.068Z,0.00
2018-09-25T02:00:18.787Z,0.00
2018-09-25T02:01:18.804Z,4.00
2018-09-25T02:02:18.799Z,4.00
2018-09-25T02:03:18.811Z,0.00
2018-09-25T02:04:18.822Z,0.00
2018-09-25T02:05:18.835Z,0.00
2018-09-25T02:06:18.846Z,0.00
2018-09-25T02:07:18.858Z,0.00
2018-09-25T02:08:18.867Z,0.00
2018-09-25T02:09:18.912Z,0.00
2018-09-25T02:10:18.907Z,0.00
2018-09-25T02:11:18.955Z,0.00
2018-09-25T02:12:18.916Z,0.00
2018-09-25T02:13:18.929Z,0.00
2018-09-25T02:14:18.937Z,0.00
2018-09-25T02:15:18.949Z,0.00
2018-09-25T02:16:18.960Z,0.00
2018-09-25T02:17:18.975Z,0.00
2018-09-25T02:18:18.983Z,0.00
2018-09-25T02:19:19.023Z,0.00
2018-09-25T02:20:19.006Z,0.00
2018-09-25T02:21:19.025Z,0.00
2018-09-25T02:22:19.028Z,0.00
2018-09-25T02:23:19.349Z,0.00
2018-09-25T02:24:19.054Z,0.00
2018-09-25T02:25:19.084Z,0.00
2018-09-25T02:26:19.074Z,0.00
2018-09-25T02:27:19.115Z,0.00
2018-09-25T02:28:19.148Z,0.00
2018-09-25T02:29:19.108Z,0.00
2018-09-25T02:30:19.123Z,0.00
2018-09-25T02:31:19.388Z,0.00
2018-09-25T02:33:19.731Z,0.00
2018-09-25T02:34:19.635Z,0.00
2018-09-25T02:35:19.201Z,0.00
2018-09-25T02:36:19.192Z,0.00
2018-09-25T02:37:19.204Z,0.00
2018-09-25T02:38:19.215Z,0.00
2018-09-25T02:39:19.227Z,0.00
2018-09-25T02:41:19.245Z,0.00
2018-09-25T02:42:19.256Z,0.00
2018-09-25T02:43:19.267Z,0.00
2018-09-25T02:44:19.283Z,0.00
2018-09-25T02:45:19.291Z,0.00
2018-09-25T02:46:19.300Z,0.00
2018-09-25T02:47:19.350Z,0.00
2018-09-25T02:48:19.356Z,0.00
2018-09-25T02:49:19.343Z,0.00
2018-09-25T02:50:19.358Z,0.00
2018-09-25T02:51:19.358Z,0.00
2018-09-25T02:52:19.369Z,0.00
2018-09-25T02:53:19.387Z,0.00
2018-09-25T02:54:19.405Z,0.00
2018-09-25T02:55:19.403Z,0.00
2018-09-25T02:56:19.417Z,0.00
2018-09-25T02:57:19.446Z,0.00
2018-09-25T02:58:19.442Z,0.00
2018-09-25T02:59:19.454Z,0.00
2018-09-25T03:00:19.462Z,0.00
2018-09-25T03:01:19.470Z,0.00
2018-09-25T03:02:19.534Z,0.00
2018-09-25T03:04:19.998Z,0.00
2018-09-25T03:05:19.518Z,0.00
2018-09-25T03:06:19.535Z,0.00
2018-09-25T03:07:19.545Z,0.00
2018-09-25T03:08:19.560Z,0.00
2018-09-25T03:09:19.574Z,0.00
2018-09-25T03:10:19.576Z,0.00
2018-09-25T03:11:19.584Z,0.00
2018-09-25T03:12:19.597Z,0.00
2018-09-25T03:13:19.607Z,0.00
2018-09-25T03:14:19.623Z,0.00
2018-09-25T03:15:19.633Z,0.00
2018-09-25T03:16:19.643Z,0.00
2018-09-25T03:17:19.663Z,0.00
2018-09-25T03:18:19.694Z,0.00
2018-09-25T03:19:19.758Z,0.00
2018-09-25T03:20:19.719Z,0.00
2018-09-25T03:21:19.705Z,0.00
2018-09-25T03:22:19.711Z,0.00
2018-09-25T03:23:19.725Z,0.00
2018-09-25T03:24:19.729Z,0.00
2018-09-25T03:25:19.768Z,0.00
2018-09-25T03:26:19.752Z,0.00
2018-09-25T03:27:19.773Z,0.00
2018-09-25T03:28:19.786Z,0.00
2018-09-25T03:29:19.786Z,0.00
2018-09-25T03:30:19.819Z,0.00
2018-09-25T03:31:19.810Z,0.00
2018-09-25T03:32:19.827Z,0.00
2018-09-25T03:33:19.881Z,0.00
2018-09-25T03:34:19.997Z,0.00
2018-09-25T03:37:19.890Z,0.00
2018-09-25T03:38:19.886Z,0.00
2018-09-25T03:39:19.897Z,0.00
2018-09-25T03:40:19.912Z,0.00
2018-09-25T03:41:19.919Z,0.00
2018-09-25T03:42:19.935Z,0.00
2018-09-25T03:43:19.971Z,0.00
2018-09-25T03:44:19.980Z,0.00
2018-09-25T03:45:19.969Z,0.00
2018-09-25T03:46:19.976Z,0.00
2018-09-25T03:47:19.998Z,0.00
2018-09-25T03:48:19.999Z,0.00
2018-09-25T03:49:20.011Z,0.00
2018-09-25T03:50:20.038Z,0.00
2018-09-25T03:51:20.044Z,0.00
2018-09-25T03:52:20.049Z,0.00
2018-09-25T03:53:20.054Z,0.00
2018-09-25T03:54:20.071Z,0.00
2018-09-25T03:55:20.091Z,0.00
2018-09-25T03:56:20.089Z,0.00
2018-09-25T03:57:20.104Z,0.00
2018-09-25T03:58:20.122Z,0.00
2018-09-25T03:59:20.122Z,0.00
2018-09-25T04:00:20.136Z,4.00
2018-09-25T04:01:20.144Z,4.00
2018-09-25T04:02:20.153Z,0.00
2018-09-25T04:03:20.172Z,0.00
2018-09-25T04:04:20.182Z,0.00
2018-09-25T04:05:20.239Z,4.00
2018-09-25T04:06:20.356Z,4.00
2018-09-25T04:07:20.232Z,4.00
2018-09-25T04:08:20.223Z,4.00
2018-09-25T04:09:20.256Z,4.00
2018-09-25T04:10:20.244Z,4.00
2018-09-25T04:11:20.286Z,4.00
2018-09-25T04:12:20.275Z,4.00
2018-09-25T04:13:20.277Z,4.00
2018-09-25T04:14:20.292Z,4.00
2018-09-25T04:15:20.298Z,4.00
2018-09-25T04:16:20.310Z,4.00
2018-09-25T04:17:20.322Z,4.00
2018-09-25T04:18:20.336Z,4.00
2018-09-25T04:19:20.347Z,4.00
2018-09-25T04:20:20.570Z,4.00
2018-09-25T04:21:20.383Z,4.00
2018-09-25T04:22:20.402Z,4.00
2018-09-25T04:23:20.387Z,4.00
2018-09-25T04:24:20.398Z,4.00
2018-09-25T04:25:20.410Z,4.00
2018-09-25T04:26:20.421Z,4.00
2018-09-25T04:27:20.440Z,4.00
2018-09-25T04:28:20.502Z,4.00
2018-09-25T04:29:20.453Z,4.00
2018-09-25T04:30:20.497Z,4.00
2018-09-25T04:31:20.490Z,4.00
2018-09-25T04:32:20.513Z,4.00
2018-09-25T04:33:20.502Z,4.00
2018-09-25T04:34:20.509Z,4.00
2018-09-25T04:35:20.638Z,4.00
2018-09-25T04:36:20.972Z,4.00
2018-09-25T04:37:20.565Z,4.00
2018-09-25T04:38:20.568Z,4.00
2018-09-25T04:39:20.569Z,4.00
2018-09-25T04:40:20.575Z,4.00
2018-09-25T04:41:20.587Z,4.00
2018-09-25T04:42:20.609Z,4.00
2018-09-25T04:43:20.623Z,4.00
2018-09-25T04:44:20.661Z,4.00
2018-09-25T04:45:20.631Z,4.00
2018-09-25T04:46:20.793Z,4.00
2018-09-25T04:47:20.656Z,4.00
2018-09-25T04:48:20.663Z,4.00
2018-09-25T04:49:20.818Z,0.00
2018-09-25T04:50:20.718Z,4.00
2018-09-25T04:51:20.694Z,4.00
2018-09-25T04:52:20.717Z,4.00
2018-09-25T04:53:20.737Z,4.00
2018-09-25T04:54:20.732Z,4.00
2018-09-25T04:55:20.738Z,4.00
2018-09-25T04:56:20.757Z,4.00
2018-09-25T04:57:20.763Z,8.00
2018-09-25T04:58:20.827Z,4.00
2018-09-25T04:59:20.825Z,8.00
2018-09-25T05:00:21.103Z,8.00
2018-09-25T05:01:20.930Z,8.00
2018-09-25T05:02:20.817Z,8.00
2018-09-25T05:03:20.825Z,8.00
2018-09-25T05:04:20.911Z,12.00
2018-09-25T05:05:20.868Z,12.00
2018-09-25T05:08:20.886Z,20.00
2018-09-25T05:09:21.674Z,20.00
2018-09-25T05:10:20.912Z,24.00
2018-09-25T05:11:20.929Z,28.00
2018-09-25T05:12:20.934Z,32.00
2018-09-25T05:14:21.002Z,40.00
2018-09-25T05:15:20.973Z,48.00
2018-09-25T05:16:20.968Z,56.00
2018-09-25T05:17:20.980Z,60.00
2018-09-25T05:18:20.994Z,68.00
2018-09-25T05:19:20.998Z,72.00
2018-09-25T05:20:21.016Z,84.00
2018-09-25T05:21:21.020Z,92.00
2018-09-25T05:22:21.081Z,100.00
2018-09-25T05:23:21.078Z,108.00
2018-09-25T05:24:21.054Z,116.00
2018-09-25T05:25:21.088Z,128.00
2018-09-25T05:26:21.076Z,136.00
2018-09-25T05:27:21.093Z,148.00
2018-09-25T05:28:21.096Z,160.00
2018-09-25T05:29:21.420Z,172.00
2018-09-25T05:30:21.117Z,184.00
2018-09-25T05:31:21.130Z,196.00
2018-09-25T05:33:21.155Z,224.00
2018-09-25T05:34:21.177Z,232.00
2018-09-25T05:35:21.193Z,248.00
2018-09-25T05:36:21.215Z,260.00
2018-09-25T05:37:21.198Z,272.00
2018-09-25T05:40:21.429Z,312.00
2018-09-25T05:41:21.238Z,324.00
2018-09-25T05:42:21.248Z,340.00
2018-09-25T05:43:21.262Z,352.00
2018-09-25T05:44:21.282Z,368.00
2018-09-25T05:45:21.281Z,376.00
2018-09-25T05:46:21.299Z,388.00
2018-09-25T05:47:21.334Z,416.00
2018-09-25T05:48:21.327Z,440.00
2018-09-25T05:49:21.330Z,456.00
2018-09-25T05:50:21.342Z,468.00
2018-09-25T05:51:21.354Z,472.00
2018-09-25T05:52:21.355Z,436.00
2018-09-25T05:53:21.377Z,436.00
2018-09-25T05:54:21.381Z,452.00
2018-09-25T05:55:21.748Z,500.00
2018-09-25T05:56:21.404Z,520.00
2018-09-25T05:57:21.418Z,516.00
2018-09-25T05:58:21.442Z,592.00
2018-09-25T05:59:21.448Z,692.00
2018-09-25T06:00:21.454Z,628.00
2018-09-25T06:01:21.455Z,648.00
2018-09-25T06:02:21.484Z,676.00
2018-09-25T06:03:21.480Z,660.00
2018-09-25T06:04:21.503Z,680.00
2018-09-25T06:05:21.740Z,704.00
2018-09-25T06:06:21.557Z,720.00
2018-09-25T06:07:21.528Z,720.00
2018-09-25T06:08:21.548Z,748.00
2018-09-25T06:10:21.674Z,780.00
2018-09-25T06:11:21.570Z,792.00
2018-09-25T06:12:21.585Z,812.00
2018-09-25T06:13:21.590Z,824.00
2018-09-25T06:14:21.651Z,856.00
2018-09-25T06:15:21.908Z,900.00
2018-09-25T06:17:21.635Z,1200.00
2018-09-25T06:18:21.699Z,1188.00
2018-09-25T06:19:21.652Z,908.00
2018-09-25T06:20:21.681Z,920.00
2018-09-25T06:21:21.683Z,936.00
2018-09-25T06:22:21.725Z,956.00
2018-09-25T06:23:21.714Z,968.00
2018-09-25T06:24:21.728Z,980.00
2018-09-25T06:25:21.719Z,996.00
2018-09-25T06:26:21.733Z,1012.00
2018-09-25T06:27:21.780Z,1028.00
2018-09-25T06:28:21.973Z,1036.00
2018-09-25T06:30:22.124Z,1060.00
2018-09-25T06:31:21.791Z,1080.00
2018-09-25T06:32:21.806Z,1088.00
2018-09-25T06:33:21.811Z,1104.00
2018-09-25T06:34:21.821Z,1112.00
2018-09-25T06:35:21.843Z,1128.00
2018-09-25T06:36:21.843Z,1144.00
2018-09-25T06:37:21.903Z,1152.00
2018-09-25T06:38:21.862Z,1168.00
2018-09-25T06:39:21.877Z,1180.00
2018-09-25T06:40:21.888Z,1188.00
2018-09-25T06:41:21.969Z,1196.00
2018-09-25T06:42:21.911Z,1208.00
2018-09-25T06:43:22.918Z,1220.00
2018-09-25T06:44:21.940Z,1232.00
2018-09-25T06:45:21.940Z,1244.00
2018-09-25T06:46:22.099Z,1256.00
2018-09-25T06:47:22.067Z,1268.00
2018-09-25T06:48:21.971Z,1280.00
2018-09-25T06:49:21.983Z,1292.00
2018-09-25T06:50:21.994Z,1308.00
2018-09-25T06:51:22.026Z,1320.00
2018-09-25T06:52:22.021Z,1336.00
2018-09-25T06:53:22.031Z,1348.00
2018-09-25T06:54:22.055Z,1372.00
2018-09-25T06:55:22.090Z,1388.00
2018-09-25T06:56:22.060Z,1408.00
2018-09-25T06:57:22.094Z,1416.00
2018-09-25T06:58:22.150Z,1420.00
2018-09-25T06:59:22.097Z,1420.00
2018-09-25T07:00:22.161Z,1428.00
2018-09-25T07:01:22.131Z,1440.00
2018-09-25T07:02:22.241Z,1452.00
2018-09-25T07:03:22.141Z,1464.00
2018-09-25T07:04:22.157Z,1472.00
2018-09-25T07:05:22.168Z,1480.00
2018-09-25T07:06:22.184Z,1488.00
2018-09-25T07:07:22.189Z,1496.00
2018-09-25T07:08:22.196Z,1508.00
2018-09-25T07:09:22.410Z,1524.00
2018-09-25T07:10:22.361Z,1544.00
2018-09-25T07:11:22.246Z,1560.00
2018-09-25T07:12:22.241Z,1568.00
2018-09-25T07:13:22.258Z,1584.00
2018-09-25T07:14:22.263Z,1588.00
2018-09-25T07:15:22.275Z,1596.00
2018-09-25T07:16:22.286Z,1604.00
2018-09-25T07:17:22.314Z,1612.00
2018-09-25T07:18:22.325Z,1624.00
2018-09-25T07:19:22.324Z,1640.00
2018-09-25T07:20:22.333Z,1652.00
2018-09-25T07:21:22.650Z,1660.00
2018-09-25T07:22:22.354Z,1672.00
2018-09-25T07:23:22.365Z,1688.00
2018-09-25T07:24:22.370Z,1704.00
2018-09-25T07:25:22.381Z,1716.00
2018-09-25T07:26:22.838Z,1728.00
2018-09-25T07:27:23.446Z,1740.00
2018-09-25T07:28:22.816Z,1752.00
2018-09-25T07:29:22.619Z,1764.00
2018-09-25T07:30:22.442Z,1776.00
2018-09-25T07:31:23.396Z,1788.00
2018-09-25T07:32:22.596Z,1800.00
2018-09-25T07:33:22.639Z,1816.00
2018-09-25T07:34:22.508Z,1828.00
2018-09-25T07:35:22.503Z,1844.00
2018-09-25T07:36:22.713Z,1860.00
2018-09-25T07:37:22.524Z,1868.00
2018-09-25T07:38:22.609Z,1884.00
2018-09-25T07:39:23.057Z,1900.00
2018-09-25T07:40:22.726Z,1916.00
2018-09-25T07:42:23.217Z,1932.00
2018-09-25T07:43:22.627Z,1948.00
2018-09-25T07:44:22.618Z,1960.00
2018-09-25T07:45:22.737Z,1972.00
2018-09-25T07:46:22.743Z,1988.00
2018-09-25T07:47:22.640Z,1996.00
2018-09-25T07:48:22.771Z,2004.00
2018-09-25T07:49:22.666Z,2008.00
2018-09-25T07:50:22.673Z,2024.00
2018-09-25T07:51:22.685Z,2028.00
2018-09-25T07:52:22.699Z,2036.00
2018-09-25T07:53:22.710Z,2044.00
2018-09-25T07:54:22.975Z,2048.00
2018-09-25T07:55:22.785Z,2056.00
2018-09-25T07:56:22.749Z,2064.00
2018-09-25T07:57:22.757Z,2072.00
2018-09-25T07:58:22.785Z,2080.00
2018-09-25T07:59:23.110Z,2088.00
2018-09-25T08:00:22.794Z,2096.00
2018-09-25T08:01:22.807Z,2100.00
2018-09-25T08:02:22.838Z,2116.00
2018-09-25T08:03:23.481Z,2124.00
2018-09-25T08:04:22.898Z,2132.00
2018-09-25T08:05:22.855Z,2144.00
2018-09-25T08:06:22.880Z,2152.00
2018-09-25T08:07:22.877Z,2156.00
2018-09-25T08:08:22.891Z,2168.00
2018-09-25T08:09:22.961Z,2176.00
2018-09-25T08:10:22.915Z,2180.00
2018-09-25T08:11:22.927Z,2192.00
2018-09-25T08:12:22.939Z,2160.00
2018-09-25T08:13:22.974Z,2204.00
2018-09-25T08:14:22.967Z,2208.00
2018-09-25T08:15:23.051Z,2212.00
2018-09-25T08:16:23.104Z,2212.00
2018-09-25T08:17:23.002Z,2212.00
2018-09-25T08:18:23.038Z,2216.00
2018-09-25T08:19:23.036Z,2220.00
2018-09-25T08:20:23.752Z,2216.00
2018-09-25T08:21:23.320Z,2216.00
2018-09-25T08:22:23.078Z,2220.00
2018-09-25T08:23:23.075Z,2224.00
2018-09-25T08:24:23.087Z,2228.00
2018-09-25T08:25:23.103Z,2232.00
2018-09-25T08:26:23.164Z,2240.00
2018-09-25T08:27:23.122Z,2236.00
2018-09-25T08:28:24.213Z,2236.00
2018-09-25T08:29:23.690Z,2388.00
2018-09-25T08:30:23.353Z,2248.00
2018-09-25T08:31:23.187Z,2244.00
2018-09-25T08:32:23.191Z,2248.00
2018-09-25T08:33:23.205Z,2244.00
2018-09-25T08:34:23.210Z,2244.00
2018-09-25T08:35:23.235Z,2248.00
2018-09-25T08:36:23.237Z,2240.00
2018-09-25T08:37:23.251Z,2240.00
2018-09-25T08:38:23.336Z,2232.00
2018-09-25T08:39:23.377Z,2240.00
2018-09-25T08:40:23.303Z,2244.00
2018-09-25T08:41:23.301Z,2252.00
2018-09-25T08:42:23.311Z,2248.00
2018-09-25T08:43:23.325Z,2256.00
2018-09-25T08:44:23.339Z,2256.00
2018-09-25T08:45:23.356Z,2260.00
2018-09-25T08:46:23.363Z,2260.00
2018-09-25T08:47:23.377Z,2248.00
2018-09-25T08:48:23.388Z,2256.00
2018-09-25T08:49:23.399Z,2256.00
2018-09-25T08:50:23.411Z,2260.00
2018-09-25T08:51:23.423Z,2260.00
2018-09-25T08:52:23.438Z,2260.00
2018-09-25T08:53:23.674Z,2260.00
2018-09-25T08:54:23.462Z,2264.00
2018-09-25T08:55:23.879Z,2264.00
2018-09-25T08:56:23.489Z,2260.00
2018-09-25T08:57:23.544Z,2280.00
2018-09-25T08:58:24.416Z,2268.00
2018-09-25T08:59:24.549Z,2272.00
2018-09-25T09:00:23.581Z,2348.00
2018-09-25T09:01:23.908Z,2276.00
2018-09-25T09:02:23.566Z,2276.00
2018-09-25T09:03:23.581Z,2276.00
2018-09-25T09:04:23.602Z,2272.00
2018-09-25T09:05:23.617Z,2284.00
2018-09-25T09:06:23.625Z,2292.00
2018-09-25T09:07:23.628Z,2300.00
2018-09-25T09:08:23.716Z,2312.00
2018-09-25T09:09:23.658Z,2320.00
2018-09-25T09:10:23.692Z,2328.00
2018-09-25T09:11:23.698Z,2344.00
2018-09-25T09:12:23.694Z,2344.00
2018-09-25T09:13:24.155Z,2340.00
2018-09-25T09:14:23.719Z,2360.00
2018-09-25T09:15:23.730Z,2364.00
2018-09-25T09:16:23.780Z,2376.00
2018-09-25T09:17:23.806Z,2388.00
2018-09-25T09:18:23.793Z,2400.00
2018-09-25T09:19:23.785Z,2404.00
2018-09-25T09:20:23.798Z,2416.00
2018-09-25T09:21:23.833Z,2436.00
2018-09-25T09:22:23.823Z,2452.00
2018-09-25T09:23:23.850Z,2464.00
2018-09-25T09:24:23.853Z,2472.00
2018-09-25T09:25:23.861Z,2500.00
2018-09-25T09:26:23.880Z,2520.00
2018-09-25T09:27:23.998Z,2556.00
2018-09-25T09:28:23.901Z,2604.00
2018-09-25T09:29:23.915Z,2636.00
2018-09-25T09:30:23.927Z,2652.00
2018-09-25T09:31:24.142Z,2652.00
2018-09-25T09:32:23.992Z,2688.00
2018-09-25T09:33:24.255Z,2708.00
2018-09-25T09:34:23.984Z,2736.00
2018-09-25T09:35:23.991Z,2720.00
2018-09-25T09:36:24.007Z,2756.00
2018-09-25T09:37:24.018Z,2776.00
2018-09-25T09:38:24.031Z,2756.00
2018-09-25T09:39:24.043Z,2768.00
2018-09-25T09:40:24.057Z,2788.00
2018-09-25T09:41:24.179Z,2788.00
2018-09-25T09:42:24.096Z,2788.00
2018-09-25T09:43:24.099Z,2784.00
2018-09-25T09:44:24.114Z,2816.00
2018-09-25T09:45:24.124Z,2856.00
2018-09-25T09:46:24.136Z,2884.00
2018-09-25T09:47:24.164Z,2896.00
2018-09-25T09:48:24.163Z,2900.00
2018-09-25T09:49:24.774Z,2884.00
2018-09-25T09:50:24.683Z,2900.00
2018-09-25T09:51:24.552Z,2912.00
2018-09-25T09:52:24.256Z,2948.00
2018-09-25T09:53:25.475Z,2948.00
2018-09-25T09:54:24.254Z,2932.00
2018-09-25T09:55:24.272Z,3036.00
2018-09-25T09:56:24.314Z,3092.00
2018-09-25T09:57:24.286Z,3132.00
2018-09-25T09:58:24.297Z,3260.00
2018-09-25T09:59:24.309Z,3268.00
2018-09-25T10:00:25.136Z,3324.00
2018-09-25T10:01:24.445Z,3340.00
2018-09-25T10:02:24.352Z,3356.00
2018-09-25T10:03:24.366Z,3404.00
2018-09-25T10:04:24.382Z,2376.00
2018-09-25T10:05:24.391Z,1832.00
2018-09-25T10:06:25.906Z,1808.00
2018-09-25T10:07:24.434Z,1940.00
2018-09-25T10:08:24.435Z,3524.00
2018-09-25T10:09:24.467Z,3640.00
2018-09-25T10:10:24.804Z,3732.00
2018-09-25T10:11:24.475Z,3760.00
2018-09-25T10:12:24.544Z,3772.00
2018-09-25T10:13:24.536Z,3768.00
2018-09-25T10:14:24.526Z,3764.00
2018-09-25T10:15:24.575Z,3708.00
2018-09-25T10:16:24.794Z,3592.00
2018-09-25T10:17:24.570Z,3512.00
2018-09-25T10:18:24.574Z,3516.00
2018-09-25T10:19:24.596Z,3544.00
2018-09-25T10:20:25.031Z,3656.00
2018-09-25T10:21:24.619Z,3532.00
2018-09-25T10:22:24.631Z,2588.00
2018-09-25T10:23:24.644Z,2224.00
2018-09-25T10:24:24.673Z,2140.00
2018-09-25T10:25:24.675Z,2056.00
2018-09-25T10:26:24.681Z,2084.00
2018-09-25T10:27:24.754Z,2144.00
2018-09-25T10:28:24.717Z,2140.00
2018-09-25T10:29:24.728Z,2200.00
2018-09-25T10:30:24.737Z,3184.00
2018-09-25T10:32:24.810Z,2304.00
2018-09-25T10:33:24.796Z,2464.00
2018-09-25T10:34:24.792Z,2304.00
2018-09-25T10:35:24.831Z,2328.00
2018-09-25T10:36:25.628Z,2380.00
2018-09-25T10:37:25.198Z,2388.00
2018-09-25T10:38:24.857Z,2312.00
2018-09-25T10:39:25.220Z,2196.00
2018-09-25T10:40:24.874Z,2108.00
2018-09-25T10:41:25.036Z,2140.00
2018-09-25T10:42:24.902Z,2004.00
2018-09-25T10:43:25.232Z,1940.00
2018-09-25T10:44:25.233Z,1932.00
2018-09-25T10:45:24.953Z,1936.00
2018-09-25T10:46:24.955Z,1964.00
2018-09-25T10:47:24.965Z,2020.00
2018-09-25T10:48:25.031Z,2132.00
2018-09-25T10:49:24.993Z,2224.00
2018-09-25T10:50:25.022Z,2284.00
2018-09-25T10:51:25.083Z,2344.00
2018-09-25T10:52:25.058Z,2408.00
2018-09-25T10:53:25.058Z,2460.00
2018-09-25T10:54:25.062Z,2440.00
2018-09-25T10:55:25.112Z,2472.00
2018-09-25T10:56:25.088Z,2500.00
2018-09-25T10:57:25.100Z,2488.00
2018-09-25T10:58:25.151Z,2488.00
2018-09-25T10:59:25.128Z,2552.00
2018-09-25T11:00:25.149Z,2636.00
2018-09-25T11:01:25.156Z,3432.00
2018-09-25T11:02:25.169Z,2836.00
2018-09-25T11:03:25.185Z,3696.00
2018-09-25T11:04:25.260Z,3884.00
2018-09-25T11:05:25.216Z,3968.00
2018-09-25T11:06:25.223Z,4000.00
2018-09-25T11:07:25.241Z,4076.00
2018-09-25T11:08:25.264Z,4116.00
2018-09-25T11:09:25.265Z,4076.00
2018-09-25T11:10:25.339Z,3944.00
2018-09-25T11:11:25.293Z,3884.00
2018-09-25T11:12:25.310Z,3888.00
2018-09-25T11:13:25.325Z,3904.00
2018-09-25T11:14:25.362Z,3892.00
2018-09-25T11:15:25.383Z,3808.00
2018-09-25T11:16:25.374Z,3720.00
2018-09-25T11:17:25.891Z,2784.00
2018-09-25T11:18:25.422Z,3008.00
2018-09-25T11:19:25.409Z,3552.00
2018-09-25T11:20:25.424Z,3236.00
2018-09-25T11:21:25.458Z,3140.00
2018-09-25T11:22:25.452Z,3364.00
2018-09-25T11:23:25.494Z,2824.00
2018-09-25T11:24:25.478Z,3564.00
2018-09-25T11:25:25.523Z,3612.00
2018-09-25T11:26:25.516Z,2636.00
2018-09-25T11:27:25.524Z,2564.00
2018-09-25T11:28:25.533Z,2912.00
2018-09-25T11:29:25.563Z,3672.00
2018-09-25T11:30:25.857Z,3792.00
2018-09-25T11:31:25.602Z,3804.00
2018-09-25T11:32:25.599Z,2720.00
2018-09-25T11:33:25.608Z,2640.00
2018-09-25T11:34:25.623Z,2664.00
2018-09-25T11:35:27.466Z,2680.00
2018-09-25T11:37:26.429Z,2700.00
2018-09-25T11:38:25.707Z,2684.00
2018-09-25T11:39:25.703Z,2744.00
2018-09-25T11:40:25.704Z,2952.00
2018-09-25T11:41:25.820Z,2848.00
2018-09-25T11:42:26.222Z,2912.00
2018-09-25T11:43:25.797Z,2892.00
2018-09-25T11:45:27.464Z,3060.00
2018-09-25T11:46:25.805Z,3056.00
2018-09-25T11:47:26.030Z,3176.00
2018-09-25T11:48:25.852Z,3268.00
2018-09-25T11:49:25.856Z,3260.00
2018-09-25T11:50:25.846Z,2912.00
2018-09-25T11:51:25.860Z,2888.00
2018-09-25T11:52:25.875Z,2992.00
2018-09-25T11:53:25.963Z,2208.00
2018-09-25T11:54:25.902Z,2128.00
2018-09-25T11:55:25.915Z,1876.00
2018-09-25T11:56:25.961Z,2272.00
2018-09-25T11:57:25.944Z,2600.00
2018-09-25T11:58:25.962Z,2840.00
2018-09-25T11:59:25.973Z,2884.00
2018-09-25T12:00:26.087Z,3060.00
2018-09-25T12:01:26.001Z,3088.00
2018-09-25T12:02:28.070Z,3172.00
2018-09-25T12:03:26.027Z,3236.00
2018-09-25T12:04:26.046Z,3244.00
2018-09-25T12:05:26.059Z,3212.00
2018-09-25T12:06:26.069Z,3116.00
2018-09-25T12:07:26.082Z,2948.00
2018-09-25T12:08:26.097Z,2992.00
2018-09-25T12:09:26.152Z,3020.00
2018-09-25T12:10:26.129Z,2908.00
2018-09-25T12:11:26.141Z,2804.00
2018-09-25T12:12:26.158Z,3036.00
2018-09-25T12:13:26.605Z,2908.00
2018-09-25T12:14:26.273Z,3000.00
2018-09-25T12:15:26.933Z,2880.00
2018-09-25T12:16:27.526Z,3440.00
2018-09-25T12:18:27.414Z,3560.00
2018-09-25T12:19:26.252Z,3584.00
2018-09-25T12:20:26.379Z,3660.00
2018-09-25T12:21:26.285Z,3828.00
2018-09-25T12:22:26.506Z,3932.00
2018-09-25T12:23:26.375Z,4012.00
2018-09-25T12:24:26.398Z,4116.00
2018-09-25T12:25:26.351Z,4256.00
2018-09-25T12:26:26.358Z,4316.00
2018-09-25T12:27:26.368Z,4316.00
2018-09-25T12:28:26.433Z,4252.00
2018-09-25T12:29:27.004Z,4300.00
2018-09-25T12:30:26.410Z,4132.00
2018-09-25T12:31:26.490Z,4124.00
2018-09-25T12:32:26.510Z,4144.00
2018-09-25T12:33:26.452Z,4040.00
2018-09-25T12:34:27.111Z,4004.00
2018-09-25T12:35:26.484Z,4300.00
2018-09-25T12:36:26.502Z,4484.00
2018-09-25T12:37:26.513Z,4568.00
2018-09-25T12:38:26.860Z,4588.00
2018-09-25T12:39:28.183Z,4524.00
2018-09-25T12:40:26.608Z,4380.00
2018-09-25T12:41:26.570Z,4372.00
2018-09-25T12:42:26.584Z,4668.00
2018-09-25T12:43:26.602Z,4968.00
2018-09-25T12:44:26.702Z,5128.00
2018-09-25T12:45:26.764Z,5168.00
2018-09-25T12:46:28.416Z,5076.00
2018-09-25T12:47:27.337Z,5156.00
2018-09-25T12:48:27.965Z,5072.00
2018-09-25T12:50:27.907Z,4316.00
2018-09-25T12:51:26.820Z,4432.00
2018-09-25T12:52:26.768Z,3996.00
2018-09-25T12:53:26.761Z,4052.00
2018-09-25T12:54:26.784Z,3956.00
2018-09-25T12:55:26.786Z,4068.00
2018-09-25T12:56:26.802Z,4096.00
2018-09-25T12:57:26.816Z,4192.00
2018-09-25T12:58:26.821Z,4668.00